sensor_id;sensor_type;location;lat;lon;timestamp;pressure;altitude;pressure_sealevel;temperature;humidity
35910;BME280;22004;49.120;-0.200;2023-02-28T00:00:13;102713.75;;;7.46;54.02
35910;BME280;22004;49.120;-0.200;2023-02-28T00:02:42;102721.06;;;7.55;53.48
35910;BME280;22004;49.120;-0.200;2023-02-28T00:05:12;102719.50;;;7.53;53.98
35910;BME280;22004;49.120;-0.200;2023-02-28T00:07:38;102728.34;;;7.53;53.96
35910;BME280;22004;49.120;-0.200;2023-02-28T00:10:09;102724.31;;;7.47;54.39
35910;BME280;22004;49.120;-0.200;2023-02-28T00:12:36;102724.53;;;7.44;54.04
35910;BME280;22004;49.120;-0.200;2023-02-28T00:15:03;102725.47;;;7.56;53.94
35910;BME280;22004;49.120;-0.200;2023-02-28T00:17:30;102723.13;;;7.51;54.23
35910;BME280;22004;49.120;-0.200;2023-02-28T00:19:55;102725.03;;;7.49;54.41
35910;BME280;22004;49.120;-0.200;2023-02-28T00:22:22;102714.47;;;7.48;54.36
35910;BME280;22004;49.120;-0.200;2023-02-28T00:24:47;102722.69;;;7.58;53.32
35910;BME280;22004;49.120;-0.200;2023-02-28T00:27:14;102714.94;;;7.42;53.28
35910;BME280;22004;49.120;-0.200;2023-02-28T00:29:39;102712.97;;;7.57;53.65
35910;BME280;22004;49.120;-0.200;2023-02-28T00:32:05;102714.25;;;7.51;53.61
35910;BME280;22004;49.120;-0.200;2023-02-28T00:34:31;102706.31;;;7.62;53.87
35910;BME280;22004;49.120;-0.200;2023-02-28T00:36:56;102707.84;;;7.77;53.03
35910;BME280;22004;49.120;-0.200;2023-02-28T00:39:21;102720.53;;;7.63;53.40
35910;BME280;22004;49.120;-0.200;2023-02-28T00:41:47;102715.63;;;7.57;53.37
35910;BME280;22004;49.120;-0.200;2023-02-28T00:44:12;102714.66;;;7.58;53.68
35910;BME280;22004;49.120;-0.200;2023-02-28T00:46:38;102715.03;;;7.64;53.70
35910;BME280;22004;49.120;-0.200;2023-02-28T00:49:03;102715.19;;;7.26;53.98
35910;BME280;22004;49.120;-0.200;2023-02-28T00:51:28;102718.06;;;7.60;53.60
35910;BME280;22004;49.120;-0.200;2023-02-28T00:53:54;102717.16;;;7.48;53.88
35910;BME280;22004;49.120;-0.200;2023-02-28T00:56:19;102718.91;;;7.60;53.44
35910;BME280;22004;49.120;-0.200;2023-02-28T00:58:45;102723.84;;;7.54;53.11
35910;BME280;22004;49.120;-0.200;2023-02-28T01:01:10;102726.94;;;7.60;53.44
35910;BME280;22004;49.120;-0.200;2023-02-28T01:03:35;102727.41;;;7.78;53.50
35910;BME280;22004;49.120;-0.200;2023-02-28T01:06:01;102727.09;;;7.70;53.24
35910;BME280;22004;49.120;-0.200;2023-02-28T01:08:27;102730.13;;;7.29;54.09
35910;BME280;22004;49.120;-0.200;2023-02-28T01:10:52;102731.63;;;7.33;52.15
35910;BME280;22004;49.120;-0.200;2023-02-28T01:13:18;102733.81;;;7.51;53.90
35910;BME280;22004;49.120;-0.200;2023-02-28T01:15:55;102731.66;;;7.57;53.66
35910;BME280;22004;49.120;-0.200;2023-02-28T01:18:21;102735.53;;;7.76;53.44
35910;BME280;22004;49.120;-0.200;2023-02-28T01:20:47;102736.63;;;7.74;53.21
35910;BME280;22004;49.120;-0.200;2023-02-28T01:23:13;102739.97;;;7.65;53.26
35910;BME280;22004;49.120;-0.200;2023-02-28T01:25:39;102745.13;;;7.55;53.43
35910;BME280;22004;49.120;-0.200;2023-02-28T01:28:05;102750.66;;;7.65;53.54
35910;BME280;22004;49.120;-0.200;2023-02-28T01:30:31;102746.06;;;7.67;53.50
35910;BME280;22004;49.120;-0.200;2023-02-28T01:32:56;102756.16;;;7.50;53.89
35910;BME280;22004;49.120;-0.200;2023-02-28T01:35:22;102749.72;;;7.66;53.36
35910;BME280;22004;49.120;-0.200;2023-02-28T01:37:47;102752.81;;;7.60;53.51
35910;BME280;22004;49.120;-0.200;2023-02-28T01:40:13;102751.31;;;7.56;53.10
35910;BME280;22004;49.120;-0.200;2023-02-28T01:42:38;102746.56;;;7.48;53.52
35910;BME280;22004;49.120;-0.200;2023-02-28T01:45:26;102750.06;;;7.48;54.02
35910;BME280;22004;49.120;-0.200;2023-02-28T01:47:55;102744.78;;;7.60;53.37
35910;BME280;22004;49.120;-0.200;2023-02-28T01:50:24;102738.97;;;7.42;53.87
35910;BME280;22004;49.120;-0.200;2023-02-28T01:52:54;102748.25;;;7.49;53.80
35910;BME280;22004;49.120;-0.200;2023-02-28T01:55:21;102745.50;;;7.38;53.36
35910;BME280;22004;49.120;-0.200;2023-02-28T01:57:52;102737.81;;;7.46;53.57
35910;BME280;22004;49.120;-0.200;2023-02-28T02:00:22;102744.00;;;7.46;54.14
35910;BME280;22004;49.120;-0.200;2023-02-28T02:02:51;102739.13;;;7.28;53.88
35910;BME280;22004;49.120;-0.200;2023-02-28T02:05:21;102741.97;;;7.37;54.23
35910;BME280;22004;49.120;-0.200;2023-02-28T02:07:50;102738.13;;;7.41;53.65
35910;BME280;22004;49.120;-0.200;2023-02-28T02:15:39;102731.19;;;7.39;53.78
35910;BME280;22004;49.120;-0.200;2023-02-28T02:26:27;102732.28;;;7.23;54.53
35910;BME280;22004;49.120;-0.200;2023-02-28T02:37:01;102734.31;;;7.20;53.84
35910;BME280;22004;49.120;-0.200;2023-02-28T02:42:01;102729.72;;;7.22;54.27
35910;BME280;22004;49.120;-0.200;2023-02-28T02:47:09;102726.53;;;7.17;54.33
35910;BME280;22004;49.120;-0.200;2023-02-28T02:49:38;102724.19;;;7.12;54.24
35910;BME280;22004;49.120;-0.200;2023-02-28T02:52:08;102723.88;;;7.17;54.37
35910;BME280;22004;49.120;-0.200;2023-02-28T02:54:40;102726.09;;;7.10;54.54
35910;BME280;22004;49.120;-0.200;2023-02-28T02:57:15;102724.63;;;7.06;53.57
35910;BME280;22004;49.120;-0.200;2023-02-28T02:59:44;102722.50;;;6.98;54.11
35910;BME280;22004;49.120;-0.200;2023-02-28T03:02:14;102720.66;;;7.12;53.89
35910;BME280;22004;49.120;-0.200;2023-02-28T03:04:52;102733.50;;;7.07;54.23
35910;BME280;22004;49.120;-0.200;2023-02-28T03:07:19;102730.38;;;7.00;54.11
35910;BME280;22004;49.120;-0.200;2023-02-28T03:09:51;102731.16;;;7.02;54.42
35910;BME280;22004;49.120;-0.200;2023-02-28T03:12:18;102729.66;;;6.98;54.29
35910;BME280;22004;49.120;-0.200;2023-02-28T03:14:53;102735.22;;;7.08;54.04
35910;BME280;22004;49.120;-0.200;2023-02-28T03:25:23;102731.03;;;7.16;53.78
35910;BME280;22004;49.120;-0.200;2023-02-28T03:30:45;102722.91;;;7.18;53.80
35910;BME280;22004;49.120;-0.200;2023-02-28T03:33:16;102734.44;;;7.06;53.89
35910;BME280;22004;49.120;-0.200;2023-02-28T03:35:48;102735.94;;;7.10;54.03
35910;BME280;22004;49.120;-0.200;2023-02-28T03:38:32;102732.84;;;7.03;54.37
35910;BME280;22004;49.120;-0.200;2023-02-28T03:41:09;102743.34;;;7.06;54.30
35910;BME280;22004;49.120;-0.200;2023-02-28T03:43:40;102745.44;;;7.01;54.39
35910;BME280;22004;49.120;-0.200;2023-02-28T03:46:10;102741.81;;;7.15;53.84
35910;BME280;22004;49.120;-0.200;2023-02-28T03:48:44;102737.81;;;7.33;53.60
35910;BME280;22004;49.120;-0.200;2023-02-28T03:51:15;102734.56;;;7.04;54.37
35910;BME280;22004;49.120;-0.200;2023-02-28T03:53:47;102741.59;;;7.05;54.03
35910;BME280;22004;49.120;-0.200;2023-02-28T03:56:26;102738.72;;;6.95;54.29
35910;BME280;22004;49.120;-0.200;2023-02-28T03:59:04;102741.94;;;7.00;54.05
35910;BME280;22004;49.120;-0.200;2023-02-28T04:01:41;102744.19;;;6.94;54.12
35910;BME280;22004;49.120;-0.200;2023-02-28T04:04:09;102733.81;;;7.02;54.12
35910;BME280;22004;49.120;-0.200;2023-02-28T04:06:35;102734.69;;;7.03;54.18
35910;BME280;22004;49.120;-0.200;2023-02-28T04:09:02;102749.72;;;6.91;54.57
35910;BME280;22004;49.120;-0.200;2023-02-28T04:11:50;102745.03;;;7.07;54.08
35910;BME280;22004;49.120;-0.200;2023-02-28T04:14:17;102752.41;;;7.04;54.26
35910;BME280;22004;49.120;-0.200;2023-02-28T04:16:43;102752.41;;;7.16;53.46
35910;BME280;22004;49.120;-0.200;2023-02-28T04:19:10;102758.06;;;6.99;54.20
35910;BME280;22004;49.120;-0.200;2023-02-28T04:21:47;102756.88;;;6.90;54.17
35910;BME280;22004;49.120;-0.200;2023-02-28T04:24:15;102753.28;;;6.91;54.42
35910;BME280;22004;49.120;-0.200;2023-02-28T04:26:43;102755.72;;;6.94;53.90
35910;BME280;22004;49.120;-0.200;2023-02-28T04:29:11;102760.63;;;7.00;54.39
35910;BME280;22004;49.120;-0.200;2023-02-28T04:31:37;102759.88;;;6.86;53.99
35910;BME280;22004;49.120;-0.200;2023-02-28T04:34:03;102760.84;;;6.97;53.94
35910;BME280;22004;49.120;-0.200;2023-02-28T04:36:28;102762.56;;;7.11;53.46
35910;BME280;22004;49.120;-0.200;2023-02-28T04:38:54;102766.81;;;7.01;54.43
35910;BME280;22004;49.120;-0.200;2023-02-28T04:41:20;102765.75;;;6.91;54.16
35910;BME280;22004;49.120;-0.200;2023-02-28T04:43:46;102766.81;;;7.01;53.52
35910;BME280;22004;49.120;-0.200;2023-02-28T04:46:11;102762.75;;;7.08;53.81
35910;BME280;22004;49.120;-0.200;2023-02-28T04:48:38;102770.16;;;6.92;54.42
35910;BME280;22004;49.120;-0.200;2023-02-28T04:51:07;102768.75;;;6.99;54.08
35910;BME280;22004;49.120;-0.200;2023-02-28T04:53:33;102772.91;;;6.90;53.72
35910;BME280;22004;49.120;-0.200;2023-02-28T04:55:59;102767.88;;;6.86;54.33
35910;BME280;22004;49.120;-0.200;2023-02-28T04:58:25;102771.09;;;7.04;53.75
35910;BME280;22004;49.120;-0.200;2023-02-28T05:00:52;102773.56;;;6.94;54.20
35910;BME280;22004;49.120;-0.200;2023-02-28T05:03:17;102775.47;;;7.05;54.04
35910;BME280;22004;49.120;-0.200;2023-02-28T05:05:42;102771.75;;;6.94;54.29
35910;BME280;22004;49.120;-0.200;2023-02-28T05:08:08;102770.88;;;6.94;53.80
35910;BME280;22004;49.120;-0.200;2023-02-28T05:10:34;102773.13;;;6.87;54.39
35910;BME280;22004;49.120;-0.200;2023-02-28T05:12:59;102771.09;;;6.91;54.11
35910;BME280;22004;49.120;-0.200;2023-02-28T05:15:25;102775.50;;;6.92;53.80
35910;BME280;22004;49.120;-0.200;2023-02-28T05:17:50;102776.03;;;6.97;54.13
35910;BME280;22004;49.120;-0.200;2023-02-28T05:20:16;102777.41;;;6.90;53.58
35910;BME280;22004;49.120;-0.200;2023-02-28T05:22:43;102777.31;;;6.91;53.93
35910;BME280;22004;49.120;-0.200;2023-02-28T05:25:13;102769.94;;;7.08;53.68
35910;BME280;22004;49.120;-0.200;2023-02-28T05:27:41;102773.44;;;7.08;54.34
35910;BME280;22004;49.120;-0.200;2023-02-28T05:30:07;102769.38;;;7.15;53.60
35910;BME280;22004;49.120;-0.200;2023-02-28T05:32:35;102768.75;;;6.99;54.02
35910;BME280;22004;49.120;-0.200;2023-02-28T05:35:01;102772.47;;;7.22;52.87
35910;BME280;22004;49.120;-0.200;2023-02-28T05:37:26;102767.69;;;7.02;53.48
35910;BME280;22004;49.120;-0.200;2023-02-28T05:39:51;102763.41;;;6.99;53.97
35910;BME280;22004;49.120;-0.200;2023-02-28T05:42:17;102765.97;;;7.00;53.57
35910;BME280;22004;49.120;-0.200;2023-02-28T05:44:42;102766.41;;;6.94;53.92
35910;BME280;22004;49.120;-0.200;2023-02-28T05:47:07;102777.19;;;6.93;53.59
35910;BME280;22004;49.120;-0.200;2023-02-28T05:49:33;102766.94;;;6.74;52.37
35910;BME280;22004;49.120;-0.200;2023-02-28T05:51:58;102772.06;;;6.90;53.77
35910;BME280;22004;49.120;-0.200;2023-02-28T05:54:23;102773.53;;;6.81;54.47
35910;BME280;22004;49.120;-0.200;2023-02-28T05:56:49;102786.03;;;6.81;54.06
35910;BME280;22004;49.120;-0.200;2023-02-28T05:59:14;102781.56;;;6.81;54.19
35910;BME280;22004;49.120;-0.200;2023-02-28T06:01:44;102777.19;;;6.80;54.28
35910;BME280;22004;49.120;-0.200;2023-02-28T06:04:14;102786.38;;;6.89;54.14
35910;BME280;22004;49.120;-0.200;2023-02-28T06:06:43;102793.00;;;6.83;53.87
35910;BME280;22004;49.120;-0.200;2023-02-28T06:09:09;102795.34;;;7.00;53.94
35910;BME280;22004;49.120;-0.200;2023-02-28T06:11:34;102799.72;;;6.89;54.07
35910;BME280;22004;49.120;-0.200;2023-02-28T06:14:00;102798.53;;;6.80;54.03
35910;BME280;22004;49.120;-0.200;2023-02-28T06:16:27;102801.75;;;6.85;53.88
35910;BME280;22004;49.120;-0.200;2023-02-28T06:18:53;102806.47;;;6.82;53.88
35910;BME280;22004;49.120;-0.200;2023-02-28T06:21:21;102811.88;;;6.80;54.10
35910;BME280;22004;49.120;-0.200;2023-02-28T06:23:47;102818.19;;;6.79;54.82
35910;BME280;22004;49.120;-0.200;2023-02-28T06:26:12;102823.41;;;6.81;54.03
35910;BME280;22004;49.120;-0.200;2023-02-28T06:28:37;102818.63;;;6.73;54.16
35910;BME280;22004;49.120;-0.200;2023-02-28T06:31:07;102814.16;;;6.86;54.50
35910;BME280;22004;49.120;-0.200;2023-02-28T06:33:33;102819.50;;;6.86;54.39
35910;BME280;22004;49.120;-0.200;2023-02-28T06:35:58;102824.16;;;6.70;53.89
35910;BME280;22004;49.120;-0.200;2023-02-28T06:38:24;102835.69;;;6.70;54.16
35910;BME280;22004;49.120;-0.200;2023-02-28T06:40:56;102827.38;;;6.75;54.56
35910;BME280;22004;49.120;-0.200;2023-02-28T06:43:23;102819.34;;;6.75;54.36
35910;BME280;22004;49.120;-0.200;2023-02-28T06:45:48;102831.97;;;6.73;54.01
35910;BME280;22004;49.120;-0.200;2023-02-28T06:48:14;102831.75;;;6.76;53.96
35910;BME280;22004;49.120;-0.200;2023-02-28T06:50:39;102823.53;;;6.79;53.83
35910;BME280;22004;49.120;-0.200;2023-02-28T06:53:05;102828.44;;;6.72;54.04
35910;BME280;22004;49.120;-0.200;2023-02-28T06:55:30;102831.66;;;6.78;53.94
35910;BME280;22004;49.120;-0.200;2023-02-28T06:57:56;102833.78;;;6.72;53.93
35910;BME280;22004;49.120;-0.200;2023-02-28T07:00:22;102829.41;;;6.71;54.01
35910;BME280;22004;49.120;-0.200;2023-02-28T07:02:47;102840.09;;;6.71;53.72
35910;BME280;22004;49.120;-0.200;2023-02-28T07:05:13;102843.69;;;6.70;54.04
35910;BME280;22004;49.120;-0.200;2023-02-28T07:07:39;102843.63;;;6.72;53.97
35910;BME280;22004;49.120;-0.200;2023-02-28T07:10:10;102846.81;;;6.77;53.76
35910;BME280;22004;49.120;-0.200;2023-02-28T07:12:36;102853.97;;;6.77;54.32
35910;BME280;22004;49.120;-0.200;2023-02-28T07:15:02;102847.13;;;6.72;54.28
35910;BME280;22004;49.120;-0.200;2023-02-28T07:17:28;102838.03;;;6.75;53.54
35910;BME280;22004;49.120;-0.200;2023-02-28T07:19:53;102845.31;;;6.73;54.31
35910;BME280;22004;49.120;-0.200;2023-02-28T07:22:19;102844.53;;;6.71;53.68
35910;BME280;22004;49.120;-0.200;2023-02-28T07:24:44;102842.09;;;6.81;53.95
35910;BME280;22004;49.120;-0.200;2023-02-28T07:27:09;102849.50;;;6.77;53.65
35910;BME280;22004;49.120;-0.200;2023-02-28T07:29:35;102847.13;;;6.85;53.94
35910;BME280;22004;49.120;-0.200;2023-02-28T07:32:00;102852.47;;;6.85;53.79
35910;BME280;22004;49.120;-0.200;2023-02-28T07:34:25;102853.97;;;6.89;54.14
35910;BME280;22004;49.120;-0.200;2023-02-28T07:36:53;102854.59;;;6.80;53.85
35910;BME280;22004;49.120;-0.200;2023-02-28T07:39:20;102861.69;;;6.94;54.19
35910;BME280;22004;49.120;-0.200;2023-02-28T07:41:45;102866.41;;;7.29;53.13
35910;BME280;22004;49.120;-0.200;2023-02-28T07:44:11;102869.69;;;10.36;45.77
35910;BME280;22004;49.120;-0.200;2023-02-28T07:46:37;102886.84;;;11.70;41.76
35910;BME280;22004;49.120;-0.200;2023-02-28T07:49:02;102887.38;;;11.85;41.25
35910;BME280;22004;49.120;-0.200;2023-02-28T07:51:29;102888.19;;;12.64;39.29
35910;BME280;22004;49.120;-0.200;2023-02-28T07:53:55;102883.22;;;12.99;39.06
35910;BME280;22004;49.120;-0.200;2023-02-28T07:56:20;102876.09;;;13.07;38.31
35910;BME280;22004;49.120;-0.200;2023-02-28T07:58:46;102871.25;;;9.73;45.35
35910;BME280;22004;49.120;-0.200;2023-02-28T08:01:12;102884.16;;;8.28;49.27
35910;BME280;22004;49.120;-0.200;2023-02-28T08:03:38;102880.78;;;11.47;42.34
35910;BME280;22004;49.120;-0.200;2023-02-28T08:06:05;102869.69;;;12.02;40.33
35910;BME280;22004;49.120;-0.200;2023-02-28T08:08:31;102881.72;;;11.67;42.01
35910;BME280;22004;49.120;-0.200;2023-02-28T08:11:01;102875.75;;;11.33;42.50
35910;BME280;22004;49.120;-0.200;2023-02-28T08:13:27;102872.19;;;11.02;43.33
35910;BME280;22004;49.120;-0.200;2023-02-28T08:15:54;102874.63;;;10.52;43.78
35910;BME280;22004;49.120;-0.200;2023-02-28T08:18:20;102872.78;;;10.09;44.41
35910;BME280;22004;49.120;-0.200;2023-02-28T08:20:45;102876.72;;;10.48;44.41
35910;BME280;22004;49.120;-0.200;2023-02-28T08:23:11;102869.03;;;10.44;45.04
35910;BME280;22004;49.120;-0.200;2023-02-28T08:25:36;102877.53;;;10.28;44.32
35910;BME280;22004;49.120;-0.200;2023-02-28T08:28:01;102874.88;;;10.49;44.71
35910;BME280;22004;49.120;-0.200;2023-02-28T08:30:27;102875.91;;;9.71;44.30
35910;BME280;22004;49.120;-0.200;2023-02-28T08:32:52;102889.00;;;10.30;44.71
35910;BME280;22004;49.120;-0.200;2023-02-28T08:35:18;102882.22;;;9.81;43.29
35910;BME280;22004;49.120;-0.200;2023-02-28T08:37:43;102881.75;;;9.76;46.62
35910;BME280;22004;49.120;-0.200;2023-02-28T08:40:09;102878.66;;;10.03;43.61
35910;BME280;22004;49.120;-0.200;2023-02-28T08:42:35;102882.88;;;8.93;46.60
35910;BME280;22004;49.120;-0.200;2023-02-28T08:45:00;102881.09;;;10.06;44.97
35910;BME280;22004;49.120;-0.200;2023-02-28T08:47:26;102877.53;;;10.28;45.12
35910;BME280;22004;49.120;-0.200;2023-02-28T08:49:51;102886.00;;;9.90;44.87
35910;BME280;22004;49.120;-0.200;2023-02-28T08:52:16;102880.63;;;10.55;45.09
35910;BME280;22004;49.120;-0.200;2023-02-28T08:54:42;102890.66;;;9.65;46.97
35910;BME280;22004;49.120;-0.200;2023-02-28T08:57:07;102885.25;;;10.10;45.94
35910;BME280;22004;49.120;-0.200;2023-02-28T08:59:33;102889.84;;;8.96;47.50
35910;BME280;22004;49.120;-0.200;2023-02-28T09:01:58;102883.75;;;10.17;46.03
35910;BME280;22004;49.120;-0.200;2023-02-28T09:04:23;102888.00;;;8.61;46.44
35910;BME280;22004;49.120;-0.200;2023-02-28T09:06:49;102885.50;;;9.73;46.88
35910;BME280;22004;49.120;-0.200;2023-02-28T09:09:15;102883.97;;;8.56;48.53
35910;BME280;22004;49.120;-0.200;2023-02-28T09:11:41;102887.22;;;9.74;46.63
35910;BME280;22004;49.120;-0.200;2023-02-28T09:14:06;102887.31;;;9.28;47.30
35910;BME280;22004;49.120;-0.200;2023-02-28T09:16:32;102887.69;;;8.29;48.51
35910;BME280;22004;49.120;-0.200;2023-02-28T09:18:58;102886.69;;;8.30;49.99
35910;BME280;22004;49.120;-0.200;2023-02-28T09:21:24;102882.50;;;9.55;47.59
35910;BME280;22004;49.120;-0.200;2023-02-28T09:23:50;102883.31;;;9.33;46.25
35910;BME280;22004;49.120;-0.200;2023-02-28T09:26:20;102880.97;;;9.06;48.38
35910;BME280;22004;49.120;-0.200;2023-02-28T09:28:47;102881.59;;;9.89;46.89
35910;BME280;22004;49.120;-0.200;2023-02-28T09:31:17;102875.25;;;9.33;46.29
35910;BME280;22004;49.120;-0.200;2023-02-28T09:33:46;102876.09;;;8.04;49.34
35910;BME280;22004;49.120;-0.200;2023-02-28T09:36:11;102872.50;;;8.89;48.48
35910;BME280;22004;49.120;-0.200;2023-02-28T09:38:37;102864.59;;;8.52;47.46
35910;BME280;22004;49.120;-0.200;2023-02-28T09:41:08;102864.94;;;8.35;49.50
35910;BME280;22004;49.120;-0.200;2023-02-28T09:43:38;102867.47;;;9.42;45.15
35910;BME280;22004;49.120;-0.200;2023-02-28T09:46:17;102855.50;;;9.01;46.07
35910;BME280;22004;49.120;-0.200;2023-02-28T09:48:48;102850.47;;;8.85;45.00
35910;BME280;22004;49.120;-0.200;2023-02-28T09:53:48;102851.22;;;9.10;45.33
35910;BME280;22004;49.120;-0.200;2023-02-28T09:56:25;102851.09;;;8.53;47.58
35910;BME280;22004;49.120;-0.200;2023-02-28T09:59:02;102857.22;;;8.67;47.32
35910;BME280;22004;49.120;-0.200;2023-02-28T10:10:03;102862.03;;;7.90;43.33
35910;BME280;22004;49.120;-0.200;2023-02-28T10:12:31;102866.84;;;7.22;46.16
35910;BME280;22004;49.120;-0.200;2023-02-28T10:14:58;102861.59;;;8.20;48.10
35910;BME280;22004;49.120;-0.200;2023-02-28T10:17:28;102864.50;;;8.65;47.47
35910;BME280;22004;49.120;-0.200;2023-02-28T10:20:19;102856.09;;;8.93;46.63
35910;BME280;22004;49.120;-0.200;2023-02-28T10:23:17;102857.47;;;8.40;46.35
35910;BME280;22004;49.120;-0.200;2023-02-28T10:25:55;102860.09;;;8.99;43.81
35910;BME280;22004;49.120;-0.200;2023-02-28T10:28:24;102854.91;;;8.38;46.89
35910;BME280;22004;49.120;-0.200;2023-02-28T10:30:52;102856.72;;;8.97;47.69
35910;BME280;22004;49.120;-0.200;2023-02-28T10:33:25;102853.69;;;8.66;43.82
35910;BME280;22004;49.120;-0.200;2023-02-28T10:35:52;102842.75;;;9.38;46.23
35910;BME280;22004;49.120;-0.200;2023-02-28T10:38:25;102850.53;;;8.37;42.54
35910;BME280;22004;49.120;-0.200;2023-02-28T10:41:03;102838.91;;;8.49;43.34
35910;BME280;22004;49.120;-0.200;2023-02-28T10:43:28;102844.47;;;8.22;45.83
35910;BME280;22004;49.120;-0.200;2023-02-28T10:45:58;102843.75;;;8.44;43.92
35910;BME280;22004;49.120;-0.200;2023-02-28T10:48:45;102843.41;;;8.49;46.50
35910;BME280;22004;49.120;-0.200;2023-02-28T10:51:16;102853.13;;;8.26;45.18
35910;BME280;22004;49.120;-0.200;2023-02-28T10:59:03;102837.66;;;8.77;45.72
35910;BME280;22004;49.120;-0.200;2023-02-28T11:01:44;102840.81;;;8.36;45.55
35910;BME280;22004;49.120;-0.200;2023-02-28T11:06:56;102842.34;;;8.15;45.59
35910;BME280;22004;49.120;-0.200;2023-02-28T11:09:28;102839.06;;;7.74;46.16
35910;BME280;22004;49.120;-0.200;2023-02-28T11:11:56;102840.19;;;8.20;45.79
35910;BME280;22004;49.120;-0.200;2023-02-28T11:14:25;102837.41;;;7.97;46.08
35910;BME280;22004;49.120;-0.200;2023-02-28T11:16:53;102832.50;;;7.91;44.53
35910;BME280;22004;49.120;-0.200;2023-02-28T11:19:25;102837.16;;;8.37;47.95
35910;BME280;22004;49.120;-0.200;2023-02-28T11:22:03;102834.56;;;8.12;46.37
35910;BME280;22004;49.120;-0.200;2023-02-28T11:24:37;102834.22;;;8.40;46.97
35910;BME280;22004;49.120;-0.200;2023-02-28T11:27:24;102832.31;;;8.42;45.31
35910;BME280;22004;49.120;-0.200;2023-02-28T11:29:50;102821.16;;;7.88;45.44
35910;BME280;22004;49.120;-0.200;2023-02-28T11:32:19;102819.47;;;9.39;44.45
35910;BME280;22004;49.120;-0.200;2023-02-28T11:34:47;102819.69;;;9.02;45.84
35910;BME280;22004;49.120;-0.200;2023-02-28T11:37:25;102809.72;;;9.38;44.73
35910;BME280;22004;49.120;-0.200;2023-02-28T11:39:52;102800.19;;;9.00;46.30
35910;BME280;22004;49.120;-0.200;2023-02-28T11:56:15;102793.63;;;8.22;46.62
35910;BME280;22004;49.120;-0.200;2023-02-28T12:04:23;102790.38;;;8.30;49.41
35910;BME280;22004;49.120;-0.200;2023-02-28T12:26:44;102779.38;;;7.74;54.40
35910;BME280;22004;49.120;-0.200;2023-02-28T12:31:46;102765.63;;;8.97;52.36
35910;BME280;22004;49.120;-0.200;2023-02-28T12:34:28;102767.00;;;7.97;54.15
35910;BME280;22004;49.120;-0.200;2023-02-28T12:36:58;102757.31;;;8.31;53.39
35910;BME280;22004;49.120;-0.200;2023-02-28T12:39:35;102755.38;;;9.02;51.42
35910;BME280;22004;49.120;-0.200;2023-02-28T12:42:05;102754.72;;;8.29;53.58
35910;BME280;22004;49.120;-0.200;2023-02-28T12:44:46;102746.34;;;7.38;56.24
35910;BME280;22004;49.120;-0.200;2023-02-28T12:47:16;102737.41;;;8.11;55.27
35910;BME280;22004;49.120;-0.200;2023-02-28T12:50:14;102733.41;;;7.45;56.13
35910;BME280;22004;49.120;-0.200;2023-02-28T12:55:29;102724.53;;;7.08;57.51
35910;BME280;22004;49.120;-0.200;2023-02-28T13:09:03;102711.41;;;7.89;55.62
35910;BME280;22004;49.120;-0.200;2023-02-28T13:11:50;102706.66;;;8.17;54.90
35910;BME280;22004;49.120;-0.200;2023-02-28T13:19:22;102687.75;;;7.72;56.46
35910;BME280;22004;49.120;-0.200;2023-02-28T13:21:50;102690.97;;;7.04;58.75
35910;BME280;22004;49.120;-0.200;2023-02-28T13:42:32;102678.06;;;8.52;54.81
35910;BME280;22004;49.120;-0.200;2023-02-28T13:47:39;102679.56;;;7.62;58.05
35910;BME280;22004;49.120;-0.200;2023-02-28T13:50:28;102670.53;;;7.52;57.92
35910;BME280;22004;49.120;-0.200;2023-02-28T14:01:38;102683.16;;;7.13;59.31
35910;BME280;22004;49.120;-0.200;2023-02-28T14:06:38;102668.69;;;7.76;58.29
35910;BME280;22004;49.120;-0.200;2023-02-28T14:11:39;102664.84;;;7.20;60.16
35910;BME280;22004;49.120;-0.200;2023-02-28T14:14:07;102655.16;;;7.43;60.03
35910;BME280;22004;49.120;-0.200;2023-02-28T14:21:35;102653.38;;;8.14;57.62
35910;BME280;22004;49.120;-0.200;2023-02-28T14:27:08;102647.91;;;7.08;61.71
35910;BME280;22004;49.120;-0.200;2023-02-28T14:30:02;102648.25;;;7.75;59.04
35910;BME280;22004;49.120;-0.200;2023-02-28T14:37:47;102624.19;;;7.16;61.57
35910;BME280;22004;49.120;-0.200;2023-02-28T14:40:32;102615.69;;;8.28;57.67
35910;BME280;22004;49.120;-0.200;2023-02-28T14:43:04;102622.94;;;7.57;59.66
35910;BME280;22004;49.120;-0.200;2023-02-28T14:45:34;102610.06;;;7.97;59.21
35910;BME280;22004;49.120;-0.200;2023-02-28T14:48:03;102609.44;;;7.94;58.90
35910;BME280;22004;49.120;-0.200;2023-02-28T14:50:36;102609.56;;;7.57;60.38
35910;BME280;22004;49.120;-0.200;2023-02-28T14:53:02;102601.78;;;7.65;59.92
35910;BME280;22004;49.120;-0.200;2023-02-28T14:55:34;102593.94;;;8.55;57.50
35910;BME280;22004;49.120;-0.200;2023-02-28T14:58:05;102595.56;;;8.00;59.22
35910;BME280;22004;49.120;-0.200;2023-02-28T15:00:36;102585.72;;;7.89;59.57
35910;BME280;22004;49.120;-0.200;2023-02-28T15:03:22;102583.97;;;8.68;56.75
35910;BME280;22004;49.120;-0.200;2023-02-28T15:05:57;102583.69;;;7.34;61.67
35910;BME280;22004;49.120;-0.200;2023-02-28T15:08:23;102585.06;;;8.54;57.47
35910;BME280;22004;49.120;-0.200;2023-02-28T15:13:18;102586.19;;;8.41;58.04
35910;BME280;22004;49.120;-0.200;2023-02-28T15:15:57;102592.63;;;8.72;56.97
35910;BME280;22004;49.120;-0.200;2023-02-28T15:18:31;102594.72;;;7.88;59.80
35910;BME280;22004;49.120;-0.200;2023-02-28T15:21:02;102599.44;;;8.42;58.16
35910;BME280;22004;49.120;-0.200;2023-02-28T15:23:29;102598.22;;;8.46;58.56
35910;BME280;22004;49.120;-0.200;2023-02-28T15:25:56;102608.28;;;7.50;61.98
35910;BME280;22004;49.120;-0.200;2023-02-28T15:28:22;102599.19;;;8.68;57.66
35910;BME280;22004;49.120;-0.200;2023-02-28T15:31:00;102597.72;;;7.48;61.57
35910;BME280;22004;49.120;-0.200;2023-02-28T15:33:31;102581.56;;;8.65;57.60
35910;BME280;22004;49.120;-0.200;2023-02-28T15:36:13;102581.75;;;8.28;59.00
35910;BME280;22004;49.120;-0.200;2023-02-28T15:38:39;102580.56;;;8.44;58.53
35910;BME280;22004;49.120;-0.200;2023-02-28T15:41:04;102575.34;;;8.42;58.69
35910;BME280;22004;49.120;-0.200;2023-02-28T15:43:36;102570.50;;;8.47;58.79
35910;BME280;22004;49.120;-0.200;2023-02-28T15:46:12;102565.31;;;8.89;57.17